Terminal Aerodrome Forecast
Issued by NWS

Home | Current Version | Previous Version | Text Only | Print | Product List | Glossary Off
Versions: 1 2 3 4 5 6 7 8 9 10 11 12 13 14 15 16 17 18

000
FTUS43 KFGF 281700
TAFBJI
TAF
KBJI 281724Z 2818/2918 28015G22KT P6SM -RA BKN010
     FM282100 28017G25KT P6SM BKN015
     FM290000 29009KT P6SM BKN020
     FM291700 30006KT P6SM OVC015=

USA.gov is the U.S. government's official web portal to all federal, state and local government web resources and services.